Talmage, Kansas
Current Conditions -  °F | °C
As of 12:53 PM on Thursday 23 Oct 2014 (Local Time) from KSLN Reporting Station
Scattered Clouds Scattered Clouds  
Wind Chill: 72°   Ceiling: Unl
Heat Index: 72°   Visibility: 10mi
Dew Point: 60°   Wind: 6mph
Humidity: 66%   Direction: 210°SSW
Pressure: 30.08"   Gusts: NA
Location:  39.03°N, 97.26°W
Report Text: KSLN 231753Z 21005KT 10SM SCT022 22/16 A3008 RMK AO2 SLP177 T02220156 10222 20167 58006
Loading
Personal Weather Stations






























Interactive Weather Map
Tropical Storm Tracking
New forecast layout! Learn more

10-Day Weather Forecast

Advertisements
Track Severe Weather on mobile